M I D A S
Marine Information and Data Acquisition System
Tripno 968 of the Zeeleeuw from 2005-10-06 06:43:35 to 2005-10-06 14:53:27
Back to CruiseResearch ActivitiesStationsMapUnderway DataData graphs

EquipmentUnitsComment
TimeDGPSUTC
LatitudeDGPSDM.mWGS84
LongitudeDGPSDM.mWGS84
HeadingGyrodeg 
SOGDGPSknotsSpeed over ground
COGDGPSdegCourse over ground
DepthEcho soundermeters200 kHz
Missing or incorrect values are displayed as -999
Navigation data collected by the RV Zeeleeuw from 2005-10-06 06:26:14 to 2005-10-06 14:53:04
Time Latitude Longitude Heading SOG COG Depth
2005-10-06 06:27:20 51°13.605 2°56.066 106.9 2.9 286 -999
2005-10-06 06:28:20 51°13.595 2°56.076 141.1 2.2 137 -999
2005-10-06 06:29:19 51°13.561 2°56.113 140.3 2.8 139 9.1
2005-10-06 06:30:19 51°13.535 2°56.185 102.8 3.6 95 9.4
2005-10-06 06:31:19 51°13.539 2°56.223 64.1 0.7 57 8.8
2005-10-06 06:32:19 51°13.55 2°56.237 13.4 0.8 189 8.7
2005-10-06 06:33:19 51°13.526 2°56.233 358.8 0.2 280 9.4
2005-10-06 06:34:19 51°13.548 2°56.195 300.6 2.9 297 9
2005-10-06 06:35:19 51°13.564 2°56.123 290.2 2.7 285 9
2005-10-06 06:36:19 51°13.569 2°56.094 294.3 0.9 287 9.5
2005-10-06 06:37:19 51°13.582 2°56.058 311.3 2 306 8.8
2005-10-06 06:38:19 51°13.606 2°56.008 312.2 2.3 309 8.8
2005-10-06 06:39:19 51°13.616 2°55.99 309.9 0.3 121 8.5
2005-10-06 06:40:19 51°13.614 2°55.994 304 0.2 174 4.8
2005-10-06 06:41:19 51°13.615 2°55.989 303.6 0.7 305 8.5
2005-10-06 06:42:19 51°13.626 2°55.963 310 1.7 304 8.5
2005-10-06 06:43:19 51°13.647 2°55.915 310.5 2.4 305 8.4
2005-10-06 06:44:19 51°13.672 2°55.861 310.6 2.4 309 8.3
2005-10-06 06:45:19 51°13.699 2°55.806 312.5 2.7 309 10.2
2005-10-06 06:46:19 51°13.728 2°55.758 313.8 2.9 310 10.7
2005-10-06 06:47:19 51°13.765 2°55.689 316.1 3.7 311 8.6
2005-10-06 06:48:19 51°13.831 2°55.625 346 5.3 341 9.1
2005-10-06 06:49:19 51°13.911 2°55.578 345.4 3.9 340 8.9
2005-10-06 06:50:19 51°13.941 2°55.56 344.3 2.3 337 9
2005-10-06 06:51:19 51°13.995 2°55.523 339.8 4.2 336 9.6
2005-10-06 06:52:19 51°14.073 2°55.466 339.7 5.8 335 9.6
2005-10-06 06:53:19 51°14.17 2°55.38 331.6 7.3 325 9.6
2005-10-06 06:54:19 51°14.272 2°55.252 318.9 7.9 315 9.6
2005-10-06 06:55:19 51°14.355 2°55.081 310.3 8.3 305 9.8
2005-10-06 06:56:19 51°14.417 2°54.883 298.5 8.7 291 9.6
2005-10-06 06:57:19 51°14.47 2°54.641 300.2 10.7 290 9.5
2005-10-06 06:58:19 51°14.535 2°54.354 299.9 12 289 9.4
2005-10-06 06:59:19 51°14.606 2°54.048 299.7 12.5 291 9.4
2005-10-06 07:00:19 51°14.683 2°53.734 298.8 12.7 290 9
2005-10-06 07:01:19 51°14.715 2°53.403 270.1 13.1 264 8.8
2005-10-06 07:02:19 51°14.695 2°53.056 274 13.2 268 8.3
2005-10-06 07:03:19 51°14.683 2°52.705 267.9 13.3 262 8.4
2005-10-06 07:04:19 51°14.646 2°52.357 266.1 13.3 260 8.5
2005-10-06 07:05:19 51°14.587 2°52.018 254.7 13.4 251 8.5
2005-10-06 07:06:19 51°14.529 2°51.727 256.4 9.5 252 8.8
2005-10-06 07:07:19 51°14.484 2°51.524 255.3 7.5 251 8.8
2005-10-06 07:08:19 51°14.45 2°51.364 256 5.4 251 8.7
2005-10-06 07:09:19 51°14.424 2°51.244 256.3 4.3 251 8.6
2005-10-06 07:10:19 51°14.399 2°51.144 255.5 3.8 249 8.7
2005-10-06 07:11:19 51°14.377 2°51.056 257.3 3.5 248 8.6
2005-10-06 07:12:19 51°14.356 2°50.976 258.3 3.1 248 8.6
2005-10-06 07:13:19 51°14.336 2°50.9 255.9 3.1 246 8.7
2005-10-06 07:14:19 51°14.315 2°50.826 254.7 3 244 8.6
2005-10-06 07:15:19 51°14.295 2°50.755 254.5 3 247 8.5
2005-10-06 07:16:19 51°14.275 2°50.684 253.9 2.9 247 8.5
2005-10-06 07:17:19 51°14.255 2°50.614 253.9 2.9 245 8.5
2005-10-06 07:18:19 51°14.235 2°50.545 254 2.9 246 8.4
2005-10-06 07:19:19 51°14.215 2°50.476 255 2.8 247 8.4
2005-10-06 07:20:19 51°14.196 2°50.408 254.4 2.8 245 8.5
2005-10-06 07:21:19 51°14.176 2°50.339 254.8 2.8 246 8.3
2005-10-06 07:22:19 51°14.157 2°50.27 255.1 2.8 246 8.3
2005-10-06 07:23:19 51°14.137 2°50.202 255.4 2.8 249 8.3
2005-10-06 07:24:19 51°14.118 2°50.133 255.3 2.8 246 8.2
2005-10-06 07:25:19 51°14.099 2°50.066 254.6 2.8 247 8.2
2005-10-06 07:26:19 51°14.079 2°49.998 255.3 2.8 245 8.3
2005-10-06 07:27:19 51°14.061 2°49.932 255.4 2.7 246 8.1
2005-10-06 07:28:19 51°14.042 2°49.865 255.3 2.8 247 8.1
2005-10-06 07:29:19 51°14.024 2°49.798 255.4 2.8 248 8.2
2005-10-06 07:30:19 51°14.006 2°49.732 255 2.7 247 8.1
2005-10-06 07:31:19 51°13.987 2°49.665 255.1 2.8 244 8.1
2005-10-06 07:32:19 51°13.968 2°49.599 254.3 2.7 245 8.1
2005-10-06 07:33:19 51°13.949 2°49.533 255.3 2.7 245 8.1
2005-10-06 07:34:19 51°13.93 2°49.465 256.7 2.9 247 8.2
2005-10-06 07:35:19 51°13.91 2°49.392 257 3.1 247 8.3
2005-10-06 07:36:19 51°13.89 2°49.314 257.6 3.2 248 8.2
2005-10-06 07:37:19 51°13.871 2°49.235 258.3 3.2 250 8.2
2005-10-06 07:38:19 51°13.851 2°49.156 258 3.2 248 8.1
2005-10-06 07:39:19 51°13.832 2°49.08 258.2 3 249 8.2
2005-10-06 07:40:19 51°13.813 2°49.005 258.1 2.9 248 8.2
2005-10-06 07:41:19 51°13.794 2°48.932 256.9 3 246 8.6
2005-10-06 07:42:19 51°13.774 2°48.859 257.2 3 245 8.6
2005-10-06 07:43:19 51°13.755 2°48.788 257.2 3 246 8.8
2005-10-06 07:44:19 51°13.735 2°48.707 259.7 3.5 249 8.9
2005-10-06 07:45:19 51°13.719 2°48.615 269 3.7 257 9.2
2005-10-06 07:46:19 51°13.707 2°48.517 274.8 3.8 262 9.2
2005-10-06 07:47:19 51°13.698 2°48.414 277.9 4 261 9.5
2005-10-06 07:48:19 51°13.69 2°48.322 279.6 3.3 261 9.6
2005-10-06 07:49:19 51°13.68 2°48.241 278.7 3 258 9.8
2005-10-06 07:50:19 51°13.67 2°48.169 277.8 2.7 255 9.9
2005-10-06 07:51:19 51°13.688 2°48.069 332.9 4.3 311 10
2005-10-06 07:52:19 51°13.742 2°48.081 56 3.6 52 10.2
2005-10-06 07:53:19 51°13.771 2°48.159 63.5 3.4 62 10.1
2005-10-06 07:54:19 51°13.801 2°48.236 61.4 3.1 60 10.2
2005-10-06 07:55:19 51°13.827 2°48.304 61.9 2.8 59 10.2
2005-10-06 07:56:19 51°13.85 2°48.363 57 2.5 51 10.2
2005-10-06 07:57:19 51°13.882 2°48.404 47.5 2.5 37 10.2
2005-10-06 07:58:19 51°13.915 2°48.449 52.7 2.7 45 10.2
2005-10-06 07:59:19 51°13.948 2°48.503 54.4 2.9 46 10.2
2005-10-06 08:00:19 51°13.981 2°48.557 53.7 2.8 47 10.3
2005-10-06 08:01:19 51°14.015 2°48.611 53.2 2.8 45 10.4
2005-10-06 08:02:19 51°14.049 2°48.666 53.6 2.9 44 10.4
2005-10-06 08:03:19 51°14.082 2°48.72 55.2 2.8 47 10.4
2005-10-06 08:04:19 51°14.114 2°48.776 55.7 2.9 48 10.6
2005-10-06 08:05:19 51°14.145 2°48.835 57.4 2.9 52 10.3
2005-10-06 08:06:19 51°14.174 2°48.896 60.4 2.9 55 10.7
2005-10-06 08:07:19 51°14.201 2°48.958 60 2.8 54 10.4
2005-10-06 08:08:19 51°14.229 2°49.019 60.2 2.9 55 10.5
2005-10-06 08:09:19 51°14.256 2°49.079 59.5 2.7 53 10.4
2005-10-06 08:10:19 51°14.283 2°49.136 59.5 2.6 53 10.6
2005-10-06 08:11:19 51°14.309 2°49.192 59.5 2.6 54 10.7
2005-10-06 08:12:19 51°14.336 2°49.247 59.4 2.6 54 10.6
2005-10-06 08:13:19 51°14.362 2°49.302 59.4 2.6 52 10.8
2005-10-06 08:14:19 51°14.389 2°49.357 58.7 2.7 52 10.9
2005-10-06 08:15:19 51°14.415 2°49.413 59.5 2.7 54 10.8
2005-10-06 08:16:19 51°14.442 2°49.47 59.5 2.7 53 10.8
2005-10-06 08:17:19 51°14.468 2°49.527 59.2 2.7 54 10.9
2005-10-06 08:18:19 51°14.495 2°49.584 59.3 2.7 53 10.8
2005-10-06 08:19:19 51°14.522 2°49.641 59.3 2.7 53 10.9
2005-10-06 08:20:19 51°14.549 2°49.698 58.7 2.7 53 10.9
2005-10-06 08:21:19 51°14.575 2°49.755 59.5 2.6 56 11
2005-10-06 08:22:19 51°14.602 2°49.811 58.9 2.7 54 11.1
2005-10-06 08:23:19 51°14.629 2°49.867 58.8 2.7 52 11.1
2005-10-06 08:24:19 51°14.655 2°49.924 59.5 2.6 53 11.1
2005-10-06 08:25:19 51°14.682 2°49.981 59.1 2.7 55 11.1
2005-10-06 08:26:19 51°14.708 2°50.038 59.2 2.6 55 11.2
2005-10-06 08:27:19 51°14.735 2°50.097 59.5 2.7 55 11.3
2005-10-06 08:28:19 51°14.759 2°50.158 63.5 2.7 61 11.3
2005-10-06 08:29:19 51°14.779 2°50.222 64.2 2.7 61 11.3
2005-10-06 08:30:19 51°14.798 2°50.287 69.1 2.9 71 11.3
2005-10-06 08:31:19 51°14.804 2°50.364 79.4 3 88 11.3
2005-10-06 08:32:19 51°14.801 2°50.442 87 3.1 99 11.2
2005-10-06 08:33:19 51°14.791 2°50.503 86.1 1.8 106 11.2
2005-10-06 08:34:19 51°14.784 2°50.532 76.1 0.8 114 11.1
2005-10-06 08:35:19 51°14.779 2°50.541 69 0.4 158 11.1
2005-10-06 08:36:19 51°14.773 2°50.539 67.2 0.5 215 11
2005-10-06 08:37:19 51°14.765 2°50.53 65.2 0.7 219 11.1
2005-10-06 08:38:19 51°14.755 2°50.515 64.5 0.9 232 11.1
2005-10-06 08:39:19 51°14.743 2°50.496 64.2 1.1 227 11.1
2005-10-06 08:40:19 51°14.737 2°50.489 62.9 1.1 67 11
2005-10-06 08:41:19 51°14.787 2°50.504 8.2 5.2 345 11.2
2005-10-06 08:42:19 51°14.84 2°50.327 282.3 9.9 268 11.3
2005-10-06 08:43:19 51°14.831 2°49.989 275.7 13.9 268 11.4
2005-10-06 08:44:19 51°14.822 2°49.612 274.5 14.4 268 11.6
2005-10-06 08:45:19 51°14.816 2°49.233 275.9 14.3 269 11.7
2005-10-06 08:46:19 51°14.809 2°48.855 277.5 14.3 268 11.6
2005-10-06 08:47:19 51°14.802 2°48.475 275.8 14.3 269 11.3
2005-10-06 08:48:19 51°14.797 2°48.097 275.6 14.3 268 11.2
2005-10-06 08:49:19 51°14.783 2°47.72 266.6 14.3 258 11.6
2005-10-06 08:50:19 51°14.744 2°47.343 266.3 14.6 261 12
2005-10-06 08:51:19 51°14.703 2°46.959 265.1 14.7 260 12.1
2005-10-06 08:52:19 51°14.662 2°46.577 267.6 14.4 262 11.2
2005-10-06 08:53:19 51°14.62 2°46.202 263.6 14.2 258 9.5
2005-10-06 08:54:19 51°14.583 2°45.837 267 13.7 262 7.8
2005-10-06 08:55:19 51°14.552 2°45.48 270.5 13.7 265 7.5
2005-10-06 08:56:19 51°14.532 2°45.105 270.8 14.6 263 9.6
2005-10-06 08:57:19 51°14.504 2°44.719 270.8 14.6 265 11.4
2005-10-06 08:58:19 51°14.479 2°44.331 270 14.7 263 13.3
2005-10-06 08:59:19 51°14.45 2°43.944 271.4 14.7 264 14.5
2005-10-06 09:00:19 51°14.425 2°43.554 270.9 14.9 262 15.5
2005-10-06 09:01:19 51°14.396 2°43.164 270.3 14.9 263 16
2005-10-06 09:02:19 51°14.364 2°42.771 271.3 14.9 264 16.4
2005-10-06 09:03:19 51°14.332 2°42.379 270.5 14.9 263 16.4
2005-10-06 09:04:19 51°14.301 2°41.991 270.2 14.7 263 16.6
2005-10-06 09:05:19 51°14.273 2°41.605 271.5 14.7 263 15.1
2005-10-06 09:06:19 51°14.241 2°41.219 269.2 14.7 261 13.8
2005-10-06 09:07:19 51°14.21 2°40.835 269.8 14.6 263 14.4
2005-10-06 09:08:19 51°14.18 2°40.453 270 14.5 263 13.4
2005-10-06 09:09:19 51°14.152 2°40.073 270.5 14.3 264 13.1
2005-10-06 09:10:19 51°14.123 2°39.695 269.4 14.3 262 12.7
2005-10-06 09:11:19 51°14.096 2°39.318 270.8 14.3 265 12.9
2005-10-06 09:12:19 51°14.068 2°38.942 270.7 14.2 262 11.6
2005-10-06 09:13:19 51°14.041 2°38.567 271.4 14.4 265 12.4
2005-10-06 09:14:19 51°14.015 2°38.185 271.1 14.5 264 15.9
2005-10-06 09:15:19 51°13.988 2°37.799 270.7 14.7 263 16.8
2005-10-06 09:16:19 51°13.962 2°37.409 270.1 14.9 263 19.7
2005-10-06 09:17:19 51°13.938 2°37.012 270.8 15 265 19.4
2005-10-06 09:18:19 51°13.856 2°36.649 235.2 14.8 232 18.9
2005-10-06 09:19:19 51°13.704 2°36.335 231.7 14.8 230 18.6
2005-10-06 09:20:19 51°13.551 2°36.022 233.7 15 232 17.2
2005-10-06 09:21:19 51°13.398 2°35.711 233.7 14.7 233 16.7
2005-10-06 09:22:19 51°13.245 2°35.402 234.2 14.8 233 16.4
2005-10-06 09:23:19 51°13.09 2°35.09 233.8 15.1 234 16.2
2005-10-06 09:24:19 51°12.926 2°34.797 224.1 14.6 221 16.2
2005-10-06 09:25:19 51°12.737 2°34.553 220.2 14.5 219 12.2
2005-10-06 09:26:19 51°12.548 2°34.311 219.5 14.6 219 13.8
2005-10-06 09:27:19 51°12.36 2°34.07 219.9 14.4 218 15.6
2005-10-06 09:28:19 51°12.169 2°33.837 219.1 14.5 218 17.6
2005-10-06 09:29:19 51°11.983 2°33.601 220.5 13.3 217 17.7
2005-10-06 09:30:19 51°11.861 2°33.462 213.6 7 214 17.3
2005-10-06 09:31:19 51°11.79 2°33.359 232.3 5 230 16.2
2005-10-06 09:32:19 51°11.745 2°33.267 234.4 4.1 232 16.5
2005-10-06 09:33:19 51°11.703 2°33.193 225.6 3.6 227 15.8
2005-10-06 09:34:19 51°11.663 2°33.127 221.7 3.5 224 15.8
2005-10-06 09:35:19 51°11.62 2°33.063 221.3 3.4 224 16.7
2005-10-06 09:36:19 51°11.582 2°33.002 225.1 3.2 225 14.8
2005-10-06 09:37:19 51°11.546 2°32.942 228.6 3.1 228 13.9
2005-10-06 09:38:19 51°11.512 2°32.88 231 3.1 229 14.3
2005-10-06 09:39:19 51°11.477 2°32.818 230.1 3.1 229 13.4
2005-10-06 09:40:19 51°11.443 2°32.755 230.6 3.1 230 13.1
2005-10-06 09:41:19 51°11.409 2°32.694 231.7 3.1 229 13.7
2005-10-06 09:42:20 51°11.373 2°32.632 230.6 3.1 229 13.1
2005-10-06 09:43:19 51°11.339 2°32.573 229.4 3.1 227 13.4
2005-10-06 09:44:19 51°11.304 2°32.512 230.3 3.1 227 13.3
2005-10-06 09:45:19 51°11.269 2°32.451 230.6 3.1 229 13.5
2005-10-06 09:46:19 51°11.234 2°32.391 231.2 3.1 229 13.8
2005-10-06 09:47:19 51°11.199 2°32.33 229.7 3.1 228 13.9
2005-10-06 09:48:19 51°11.164 2°32.269 230.3 3.1 227 14.2
2005-10-06 09:49:19 51°11.13 2°32.208 229.9 3.1 228 15
2005-10-06 09:50:19 51°11.095 2°32.147 230 3.1 228 15.6
2005-10-06 09:51:19 51°11.06 2°32.086 230.8 3.1 229 15.8
2005-10-06 09:52:19 51°11.025 2°32.024 230.6 3.1 228 15.9
2005-10-06 09:53:19 51°10.99 2°31.963 230 3.1 227 16
2005-10-06 09:54:19 51°10.955 2°31.901 230.5 3.2 227 16.2
2005-10-06 09:55:19 51°10.92 2°31.838 230.8 3.2 227 16.4
2005-10-06 09:56:19 51°10.884 2°31.778 234.5 3.2 229 16.5
2005-10-06 09:57:19 51°10.851 2°31.714 237.1 3.2 230 16.9
2005-10-06 09:58:19 51°10.817 2°31.649 237.6 3.2 231 17.1
2005-10-06 09:59:19 51°10.784 2°31.584 237.8 3.2 231 17.3
2005-10-06 10:00:19 51°10.751 2°31.518 237.3 3.2 232 17.5
2005-10-06 10:01:19 51°10.718 2°31.453 236.1 3.2 229 17.7
2005-10-06 10:02:19 51°10.683 2°31.389 236.2 3.2 229 18
2005-10-06 10:03:19 51°10.65 2°31.32 243.5 3.7 236 18.2
2005-10-06 10:04:19 51°10.62 2°31.222 261.8 4.3 250 18.5
2005-10-06 10:05:19 51°10.602 2°31.108 272.7 4.5 258 18.8
2005-10-06 10:06:19 51°10.585 2°30.989 270.4 4.7 256 19
2005-10-06 10:07:19 51°10.563 2°30.865 266.6 4.9 252 19.6
2005-10-06 10:08:19 51°10.535 2°30.759 256.4 4 241 20.5
2005-10-06 10:09:19 51°10.503 2°30.677 244.3 3.5 232 21
2005-10-06 10:10:19 51°10.468 2°30.611 235.3 3.2 227 21.1
2005-10-06 10:11:19 51°10.415 2°30.534 216.2 5.6 217 21.1
2005-10-06 10:12:19 51°10.33 2°30.45 191 5.9 192 20.9
2005-10-06 10:13:19 51°10.266 2°30.502 99.9 3.6 109 20.5
2005-10-06 10:14:19 51°10.3 2°30.569 32.4 3.8 23 20.4
2005-10-06 10:15:19 51°10.35 2°30.608 39.1 3 32 20.4
2005-10-06 10:16:19 51°10.383 2°30.663 54.8 2.9 55 20.2
2005-10-06 10:17:19 51°10.415 2°30.711 36.5 2.7 30 20.1
2005-10-06 10:18:19 51°10.454 2°30.749 42 2.8 38 20.2
2005-10-06 10:19:19 51°10.487 2°30.799 47.3 2.7 47 20.1
2005-10-06 10:20:19 51°10.521 2°30.847 42.6 2.7 37 19.9
2005-10-06 10:21:19 51°10.558 2°30.891 41.1 2.7 37 19.7
2005-10-06 10:22:20 51°10.594 2°30.934 42.1 2.7 37 19.7
2005-10-06 10:23:19 51°10.63 2°30.977 41.2 2.7 37 19.8
2005-10-06 10:24:19 51°10.666 2°31.021 42.2 2.7 39 19.5
2005-10-06 10:25:19 51°10.703 2°31.065 42 2.7 38 19.6
2005-10-06 10:26:19 51°10.739 2°31.108 43.1 2.6 40 19.3
2005-10-06 10:27:19 51°10.773 2°31.156 45.7 2.6 44 19.3
2005-10-06 10:28:19 51°10.805 2°31.205 45.6 2.7 43 20
2005-10-06 10:29:19 51°10.839 2°31.255 45.4 2.8 44 19.5
2005-10-06 10:30:20 51°10.874 2°31.306 45 2.7 43 19.9
2005-10-06 10:31:19 51°10.907 2°31.354 44.5 2.7 42 20.1
2005-10-06 10:32:20 51°10.942 2°31.405 45.7 2.8 43 20.1
2005-10-06 10:33:19 51°10.977 2°31.456 45.9 2.8 43 20.4
2005-10-06 10:34:19 51°11.013 2°31.507 44.7 2.9 42 20.5
2005-10-06 10:35:20 51°11.049 2°31.558 45.3 2.9 41 20.7
2005-10-06 10:36:19 51°11.082 2°31.61 47.8 2.8 46 20.6
2005-10-06 10:37:19 51°11.115 2°31.663 47.5 2.7 45 20.7
2005-10-06 10:38:19 51°11.147 2°31.716 49.6 2.8 48 20.6
2005-10-06 10:39:19 51°11.178 2°31.773 51.3 2.9 50 20.9
2005-10-06 10:40:19 51°11.207 2°31.833 52.2 2.9 52 20.7
2005-10-06 10:41:19 51°11.238 2°31.892 51.1 2.9 51 20.7
2005-10-06 10:42:19 51°11.269 2°31.952 52 2.9 52 20.7
2005-10-06 10:43:19 51°11.299 2°32.012 51.6 2.9 52 20.6
2005-10-06 10:44:19 51°11.33 2°32.073 50.8 2.9 49 20.7
2005-10-06 10:45:19 51°11.363 2°32.134 51.8 3 51 20.6
2005-10-06 10:46:19 51°11.396 2°32.196 51.6 3 51 20.6
2005-10-06 10:47:19 51°11.427 2°32.256 51 3 49 20.7
2005-10-06 10:48:19 51°11.457 2°32.315 51.8 2.9 51 20.8
2005-10-06 10:49:19 51°11.486 2°32.381 57.9 3.1 60 20.6
2005-10-06 10:50:20 51°11.513 2°32.453 57.4 3.1 58 20.6
2005-10-06 10:51:19 51°11.541 2°32.519 54.1 3 54 20.4
2005-10-06 10:52:19 51°11.573 2°32.581 50.6 3 50 20.4
2005-10-06 10:53:19 51°11.607 2°32.64 47.9 2.7 45 20.6
2005-10-06 10:54:19 51°11.634 2°32.671 35.4 1.6 24 20.7
2005-10-06 10:55:20 51°11.654 2°32.678 24.6 1 3 20.9
2005-10-06 10:56:19 51°11.666 2°32.675 20.9 0.6 345 21.1
2005-10-06 10:57:19 51°11.673 2°32.668 18.5 0.5 312 21.3
2005-10-06 10:58:19 51°11.677 2°32.659 16.3 0.4 284 21.3
2005-10-06 10:59:19 51°11.679 2°32.649 16.2 0.6 339 21.4
2005-10-06 11:00:19 51°11.715 2°32.686 51.4 3.8 48 21.3
2005-10-06 11:01:19 51°11.803 2°32.848 52.2 11.4 48 20.9
2005-10-06 11:02:19 51°11.938 2°33.092 52 12.5 48 20.2
2005-10-06 11:03:19 51°12.075 2°33.342 52.7 12.5 49 19.1
2005-10-06 11:04:19 51°12.213 2°33.59 51.5 12.5 48 17.9
2005-10-06 11:05:19 51°12.351 2°33.838 52.3 12.5 48 16.6
2005-10-06 11:06:19 51°12.489 2°34.088 53 12.5 48 15.4
2005-10-06 11:07:20 51°12.627 2°34.34 54.2 12.3 51 13.8
2005-10-06 11:08:19 51°12.756 2°34.588 54.7 12.4 51 13.6
2005-10-06 11:09:20 51°12.892 2°34.841 52.5 12.3 48 15.3
2005-10-06 11:10:19 51°13.021 2°35.087 54.1 12.3 50 17.1
2005-10-06 11:11:19 51°13.154 2°35.338 55.4 12.2 50 17.8
2005-10-06 11:12:19 51°13.287 2°35.582 54.5 12 50 18.1
2005-10-06 11:13:19 51°13.415 2°35.826 58.2 12 55 18.3
2005-10-06 11:14:19 51°13.526 2°36.089 60.3 11.9 56 18.6
2005-10-06 11:15:19 51°13.639 2°36.353 60.2 12.1 58 20.6
2005-10-06 11:16:19 51°13.75 2°36.621 58.9 12.2 55 21
2005-10-06 11:17:19 51°13.863 2°36.888 59 12.1 55 21.3
2005-10-06 11:18:19 51°13.971 2°37.158 60.4 12 57 20.4
2005-10-06 11:19:19 51°14.08 2°37.427 60.2 12.1 57 20
2005-10-06 11:20:20 51°14.18 2°37.707 71.1 11.9 72 19.7
2005-10-06 11:21:19 51°14.185 2°38.025 92.2 12.4 92 20
2005-10-06 11:22:19 51°14.17 2°38.355 95.8 12.5 96 18.4
2005-10-06 11:23:19 51°14.109 2°38.674 121.2 12.9 128 14.4
2005-10-06 11:24:19 51°13.903 2°38.775 183.3 13.8 186 13.7
2005-10-06 11:25:20 51°13.671 2°38.729 181.7 13.9 182 15.2
2005-10-06 11:26:19 51°13.455 2°38.636 210.9 13.6 210 15.6
2005-10-06 11:27:19 51°13.251 2°38.466 211.5 13.9 208 15.3
2005-10-06 11:28:19 51°13.046 2°38.302 211 13.7 207 14.9
2005-10-06 11:29:19 51°12.841 2°38.136 211.2 13.7 206 14.5
2005-10-06 11:30:19 51°12.636 2°37.97 210.4 13.8 208 14.1
2005-10-06 11:31:19 51°12.432 2°37.801 211 13.8 208 13.8
2005-10-06 11:32:20 51°12.223 2°37.635 209.9 13.8 206 13.7
2005-10-06 11:33:20 51°12.018 2°37.47 210.6 13.8 208 13.8
2005-10-06 11:34:19 51°11.821 2°37.299 216.2 13.6 211 14.1
2005-10-06 11:35:19 51°11.626 2°37.108 215.1 13.8 210 14.3
2005-10-06 11:36:20 51°11.425 2°36.916 214.1 13.9 211 14.1
2005-10-06 11:37:19 51°11.234 2°36.729 215.5 13.6 212 13.9
2005-10-06 11:38:19 51°11.039 2°36.544 214.2 13.6 209 13.6
2005-10-06 11:39:19 51°10.843 2°36.362 215 13.7 213 12.9
2005-10-06 11:40:19 51°10.65 2°36.176 215.5 13.4 211 12.5
2005-10-06 11:41:20 51°10.454 2°35.987 215.2 13.6 211 12.3
2005-10-06 11:42:19 51°10.264 2°35.804 215.5 13.3 210 12.1
2005-10-06 11:43:20 51°10.068 2°35.622 215.9 13.5 211 15.2
2005-10-06 11:44:19 51°9.88 2°35.447 214.6 13.3 211 19.4
2005-10-06 11:45:20 51°9.688 2°35.265 215.9 13.2 210 20.3
2005-10-06 11:46:19 51°9.505 2°35.092 216.6 12.9 213 19.9
2005-10-06 11:47:19 51°9.319 2°34.914 215.7 13 210 18.8
2005-10-06 11:48:20 51°9.13 2°34.736 215.7 13 214 17.5
2005-10-06 11:49:19 51°8.948 2°34.564 214.3 12.9 209 17.8
2005-10-06 11:50:20 51°8.824 2°34.461 204.5 5.8 196 18.8
2005-10-06 11:51:19 51°8.757 2°34.478 161.1 3.5 150 18.7
2005-10-06 11:52:20 51°8.732 2°34.557 103.1 3.4 94 19
2005-10-06 11:53:19 51°8.754 2°34.642 56.6 3.9 56 18.9
2005-10-06 11:54:19 51°8.796 2°34.729 54.4 4.2 53 18.7
2005-10-06 11:55:19 51°8.831 2°34.823 66.3 4 64 18.6
2005-10-06 11:56:19 51°8.86 2°34.913 62.8 3.7 61 18.6
2005-10-06 11:57:19 51°8.888 2°34.993 61.4 3.3 62 18.7
2005-10-06 11:58:19 51°8.91 2°35.066 69.5 2.9 68 18.7
2005-10-06 11:59:20 51°8.925 2°35.135 75.6 2.6 72 18.6
2005-10-06 12:00:19 51°8.937 2°35.198 75 2.6 72 18.7
2005-10-06 12:01:19 51°8.952 2°35.266 75.3 2.9 71 18.7
2005-10-06 12:02:19 51°8.966 2°35.344 80.5 3.1 77 18.8
2005-10-06 12:03:19 51°8.978 2°35.423 81.9 2.9 77 18.8
2005-10-06 12:04:19 51°8.99 2°35.499 81.9 2.9 77 18.6
2005-10-06 12:05:20 51°9.002 2°35.575 82 3 76 18.6
2005-10-06 12:06:20 51°9.014 2°35.65 81.2 2.9 75 18.5
2005-10-06 12:07:19 51°9.027 2°35.723 79.7 2.9 75 18.4
2005-10-06 12:08:19 51°9.039 2°35.798 80 2.9 76 18.2
2005-10-06 12:09:19 51°9.052 2°35.872 80.9 2.9 75 17.9
2005-10-06 12:10:19 51°9.064 2°35.947 81.4 2.9 75 17.8
2005-10-06 12:11:19 51°9.077 2°36.021 80.7 2.9 74 17.6
2005-10-06 12:12:20 51°9.091 2°36.099 80.5 2.9 73 17.6
2005-10-06 12:13:20 51°9.104 2°36.176 81 3 74 17.3
2005-10-06 12:14:20 51°9.118 2°36.253 79.8 3 75 17.2
2005-10-06 12:15:20 51°9.132 2°36.33 80.4 3 74 16.9
2005-10-06 12:16:19 51°9.145 2°36.406 81 3 77 16.6
2005-10-06 12:17:19 51°9.158 2°36.485 81.8 3.1 76 16.4
2005-10-06 12:18:19 51°9.171 2°36.564 80.3 3.1 74 16.2
2005-10-06 12:19:19 51°9.185 2°36.643 80.6 3.1 75 15.9
2005-10-06 12:20:20 51°9.199 2°36.725 80 3.2 75 15.8
2005-10-06 12:21:19 51°9.214 2°36.804 79.6 3.2 75 15.6
2005-10-06 12:22:20 51°9.229 2°36.89 80.1 3.2 73 15.3
2005-10-06 12:23:20 51°9.243 2°36.976 80.4 3.3 76 15.3
2005-10-06 12:24:20 51°9.258 2°37.054 81.2 3.3 75 15.2
2005-10-06 12:25:19 51°9.272 2°37.137 80.5 3.2 74 15
2005-10-06 12:26:19 51°9.287 2°37.221 79.3 3.3 74 14.9
2005-10-06 12:27:19 51°9.302 2°37.305 80.5 3.3 74 14.8
2005-10-06 12:28:20 51°9.317 2°37.39 81 3.3 75 14.8
2005-10-06 12:29:20 51°9.33 2°37.476 87.8 3.2 78 14.6
2005-10-06 12:30:19 51°9.338 2°37.557 96.2 3.2 82 14.4
2005-10-06 12:31:20 51°9.344 2°37.64 100.1 3.1 85 14.3
2005-10-06 12:32:19 51°9.347 2°37.722 103.2 3.2 86 14.1
2005-10-06 12:33:20 51°9.35 2°37.813 103.6 3.4 86 14.1
2005-10-06 12:34:19 51°9.354 2°37.893 101.5 2.9 82 14
2005-10-06 12:35:20 51°9.361 2°37.965 101.2 2.6 80 13.8
2005-10-06 12:36:20 51°9.367 2°38.028 103.2 2.3 80 13.9
2005-10-06 12:37:19 51°9.372 2°38.108 102 3.9 86 13.9
2005-10-06 12:38:20 51°9.374 2°38.237 102.3 5.3 90 13.7
2005-10-06 12:39:19 51°9.373 2°38.375 102.3 5.2 90 13.5
2005-10-06 12:40:20 51°9.374 2°38.509 101.1 4.9 89 13.3
2005-10-06 12:41:19 51°9.375 2°38.633 101.2 4.7 89 13.1
2005-10-06 12:42:20 51°9.376 2°38.757 101.1 4.6 89 13
2005-10-06 12:43:20 51°9.383 2°38.868 89.1 4 81 12.8
2005-10-06 12:44:20 51°9.397 2°38.967 80.3 3.7 76 12.8
2005-10-06 12:45:19 51°9.414 2°39.056 76.3 3.5 72 12.8
2005-10-06 12:46:20 51°9.432 2°39.143 76.5 3.3 72 12.6
2005-10-06 12:47:20 51°9.449 2°39.226 77.3 3.2 72 12.8
2005-10-06 12:48:19 51°9.464 2°39.306 77.7 3.2 73 12.7
2005-10-06 12:49:20 51°9.48 2°39.389 78.3 3.2 72 12.6
2005-10-06 12:50:19 51°9.495 2°39.468 79.6 3.1 75 12.6
2005-10-06 12:51:20 51°9.51 2°39.551 79.8 3.2 73 12.6
2005-10-06 12:52:19 51°9.524 2°39.629 79.8 3.2 75 12.5
2005-10-06 12:53:20 51°9.538 2°39.71 78.6 3.1 75 12.4
2005-10-06 12:54:20 51°9.554 2°39.789 77.3 3.1 73 12.4
2005-10-06 12:55:19 51°9.569 2°39.866 76.7 3.1 72 12.3
2005-10-06 12:56:20 51°9.585 2°39.947 76 3.2 72 12.3
2005-10-06 12:57:19 51°9.601 2°40.024 75.9 3.1 71 12.3
2005-10-06 12:58:20 51°9.618 2°40.104 76.9 3.1 72 12.3
2005-10-06 12:59:20 51°9.634 2°40.184 77.3 3.1 72 12.2
2005-10-06 13:00:20 51°9.649 2°40.263 76.2 3.2 72 12.3
2005-10-06 13:01:19 51°9.665 2°40.339 72.7 3.1 71 12.2
2005-10-06 13:02:19 51°9.684 2°40.416 69.6 3.1 68 12.3
2005-10-06 13:03:20 51°9.703 2°40.494 68.8 3.1 68 12.2
2005-10-06 13:04:20 51°9.723 2°40.57 68.9 3.1 67 12.2
2005-10-06 13:05:20 51°9.743 2°40.647 66.5 3.1 67 12.3
2005-10-06 13:06:20 51°9.763 2°40.722 65.1 3.1 67 12.2
2005-10-06 13:07:20 51°9.784 2°40.797 64.5 3.1 65 12.2
2005-10-06 13:08:20 51°9.805 2°40.873 64.5 3.1 64 12.2
2005-10-06 13:09:20 51°9.826 2°40.948 65 3.1 67 12.2
2005-10-06 13:10:20 51°9.847 2°41.024 64.7 3.1 65 12.1
2005-10-06 13:11:20 51°9.868 2°41.098 64.6 3.1 66 12.2
2005-10-06 13:12:19 51°9.885 2°41.171 77.5 3 73 12.1
2005-10-06 13:13:19 51°9.896 2°41.246 91.1 2.9 81 12.1
2005-10-06 13:14:20 51°9.901 2°41.323 98.3 2.9 84 12
2005-10-06 13:15:20 51°9.906 2°41.402 97.9 3 85 12
2005-10-06 13:16:20 51°9.911 2°41.476 97.3 2.7 83 12
2005-10-06 13:17:20 51°9.916 2°41.541 99 2.4 81 11.9
2005-10-06 13:18:20 51°9.921 2°41.602 102 2.2 82 12
2005-10-06 13:19:20 51°9.925 2°41.657 105.5 2.1 84 12
2005-10-06 13:20:20 51°9.929 2°41.709 110.1 2 84 11.9
2005-10-06 13:21:20 51°9.928 2°41.798 103 5.2 92 12
2005-10-06 13:22:19 51°9.944 2°41.989 82.8 9.5 78 11.9
2005-10-06 13:23:20 51°9.984 2°42.269 81.4 11.1 76 12.1
2005-10-06 13:24:19 51°10.03 2°42.555 81.5 11.3 77 12.3
2005-10-06 13:25:20 51°10.046 2°42.854 92.6 11.1 85 12.4
2005-10-06 13:26:20 51°10.096 2°43.137 71.5 11.2 67 12.4
2005-10-06 13:27:20 51°10.142 2°43.423 90 11.1 83 12.4
2005-10-06 13:28:20 51°10.169 2°43.717 87.8 11.2 82 12.3
2005-10-06 13:29:20 51°10.203 2°44.01 85.5 11.3 81 12
2005-10-06 13:30:20 51°10.238 2°44.304 84.1 11.3 78 11.8
2005-10-06 13:31:20 51°10.277 2°44.582 83.5 9.2 76 11.7
2005-10-06 13:32:20 51°10.316 2°44.771 76.1 6.4 72 11.9
2005-10-06 13:33:20 51°10.338 2°44.915 88.5 5.1 80 11.8
2005-10-06 13:34:20 51°10.35 2°45.041 90.7 4.6 82 11.8
2005-10-06 13:35:20 51°10.363 2°45.152 83.8 3.9 77 11.8
2005-10-06 13:36:20 51°10.381 2°45.243 78.3 3.4 71 11.7
2005-10-06 13:37:20 51°10.4 2°45.32 67.4 3 65 11.7
2005-10-06 13:38:19 51°10.422 2°45.388 58.9 3 60 11.8
2005-10-06 13:39:20 51°10.449 2°45.457 53.5 3.1 56 11.7
2005-10-06 13:40:20 51°10.478 2°45.525 51.5 3.1 56 11.8
2005-10-06 13:41:20 51°10.508 2°45.593 51.5 3.2 56 11.9
2005-10-06 13:42:20 51°10.537 2°45.661 51.5 3.2 56 11.9
2005-10-06 13:43:20 51°10.566 2°45.73 49.8 3.1 55 11.9
2005-10-06 13:44:20 51°10.596 2°45.798 50.8 3.2 54 12
2005-10-06 13:45:20 51°10.626 2°45.866 54.2 3.2 57 12.1
2005-10-06 13:46:20 51°10.655 2°45.938 57.8 3.2 60 12
2005-10-06 13:47:20 51°10.681 2°46.011 60 3.2 61 12
2005-10-06 13:48:20 51°10.707 2°46.083 56 3.1 60 12.1
2005-10-06 13:49:20 51°10.735 2°46.152 49.6 3.1 55 12
2005-10-06 13:50:20 51°10.767 2°46.225 52.4 3.7 55 12
2005-10-06 13:51:20 51°10.798 2°46.297 51.3 3 55 12.2
2005-10-06 13:52:20 51°10.829 2°46.361 48 3.2 51 12.1
2005-10-06 13:53:20 51°10.866 2°46.431 46.2 3.6 50 12.1
2005-10-06 13:54:20 51°10.902 2°46.512 57.8 3.8 59 12.1
2005-10-06 13:55:20 51°10.932 2°46.601 66.4 3.8 65 12.1
2005-10-06 13:56:20 51°10.958 2°46.691 64.7 3.7 65 12.2
2005-10-06 13:57:20 51°10.985 2°46.772 57.3 3.4 60 12.2
2005-10-06 13:58:20 51°11.015 2°46.847 51.2 3.3 55 12.2
2005-10-06 13:59:20 51°11.047 2°46.916 44.2 3.2 51 12.2
2005-10-06 14:00:20 51°11.081 2°46.983 40 3.2 49 12.3
2005-10-06 14:01:20 51°11.117 2°47.047 38.6 3.3 49 12.2
2005-10-06 14:02:20 51°11.152 2°47.112 42.1 3.2 50 12.2
2005-10-06 14:03:20 51°11.186 2°47.178 47.1 3.3 53 12.1
2005-10-06 14:04:20 51°11.216 2°47.248 51.8 3.2 57 12.2
2005-10-06 14:05:20 51°11.245 2°47.319 52.1 3.2 57 12.2
2005-10-06 14:06:20 51°11.275 2°47.39 50.8 3.2 54 12.1
2005-10-06 14:07:20 51°11.306 2°47.461 49.2 3.6 53 12.2
2005-10-06 14:08:20 51°11.349 2°47.55 50.9 4.6 52 12.1
2005-10-06 14:09:20 51°11.397 2°47.659 56.2 5.1 56 12.1
2005-10-06 14:10:20 51°11.444 2°47.778 61.5 5.4 60 12.1
2005-10-06 14:11:20 51°11.489 2°47.899 58.5 4.9 57 12.1
2005-10-06 14:12:20 51°11.529 2°47.989 48.5 3.8 53 12.2
2005-10-06 14:13:20 51°11.563 2°48.058 42.6 3 51 12.2
2005-10-06 14:14:20 51°11.63 2°48.171 47.7 9.8 47 12
2005-10-06 14:15:20 51°11.754 2°48.425 58.4 12.8 54 11.9
2005-10-06 14:16:20 51°11.882 2°48.701 57.1 13 53 11.8
2005-10-06 14:17:20 51°12.011 2°48.976 57 12.7 53 11.9
2005-10-06 14:18:20 51°12.13 2°49.237 55.4 11.9 50 12.1
2005-10-06 14:19:20 51°12.252 2°49.481 54.8 11.7 52 12.1
2005-10-06 14:20:20 51°12.375 2°49.725 55.5 11.9 52 12.2
2005-10-06 14:21:20 51°12.495 2°49.976 54.4 12 52 12.4
2005-10-06 14:22:20 51°12.617 2°50.228 55.4 11.9 52 12.5
2005-10-06 14:23:20 51°12.739 2°50.478 54.8 11.9 52 12.7
2005-10-06 14:24:20 51°12.861 2°50.729 54.8 12 52 12.8
2005-10-06 14:25:20 51°12.983 2°50.98 54.9 12 53 12.9
2005-10-06 14:26:20 51°13.096 2°51.241 59.3 12 56 12.9
2005-10-06 14:27:20 51°13.205 2°51.507 60 12 57 13
2005-10-06 14:28:20 51°13.293 2°51.718 58.7 7.7 56 13.1
2005-10-06 14:29:20 51°13.366 2°51.892 59.5 10.3 57 13
2005-10-06 14:30:20 51°13.488 2°52.184 61.1 14.2 57 13
2005-10-06 14:31:20 51°13.621 2°52.494 59.5 14.1 56 13
2005-10-06 14:32:20 51°13.749 2°52.798 59.5 13.2 56 12.9
2005-10-06 14:33:20 51°13.872 2°53.075 57.8 12.8 55 12.8
2005-10-06 14:34:20 51°13.975 2°53.309 58.7 9.9 55 12.6
2005-10-06 14:35:20 51°14.08 2°53.556 61.7 11.8 57 12.4
2005-10-06 14:36:20 51°14.183 2°53.791 60.4 9.5 56 12.3
2005-10-06 14:37:20 51°14.27 2°53.99 58.1 8.9 54 12.4
2005-10-06 14:38:20 51°14.352 2°54.195 69.1 9.8 63 12.5
2005-10-06 14:39:20 51°14.419 2°54.425 73.9 9 68 12.9
2005-10-06 14:40:20 51°14.452 2°54.653 96.4 8.5 86 13.3
2005-10-06 14:41:20 51°14.429 2°54.86 118.3 7.8 107 13.4
2005-10-06 14:42:20 51°14.376 2°55.048 125.2 8.1 116 13.6
2005-10-06 14:43:20 51°14.297 2°55.221 131.3 8.1 129 13.5
2005-10-06 14:44:20 51°14.201 2°55.361 143.8 7.7 142 13.4
2005-10-06 14:45:20 51°14.082 2°55.452 159.7 8.2 157 13.3
2005-10-06 14:46:20 51°13.948 2°55.547 159 9.2 155 12.8
2005-10-06 14:47:20 51°13.808 2°55.652 156.5 9.3 152 13
2005-10-06 14:48:20 51°13.715 2°55.785 133.5 6.4 130 15.5
2005-10-06 14:49:20 51°13.663 2°55.896 129.8 4.7 126 11.9
2005-10-06 14:50:20 51°13.629 2°55.993 114 3.7 112 12.7
2005-10-06 14:51:20 51°13.615 2°56.058 113.9 2.4 111 11.9
2005-10-06 14:52:20 51°13.605 2°56.093 122.1 1 117 9.2